createdAt,value
2023-04-15T00:00:58.437Z,58.80
2023-04-15T00:03:25.510Z,58.87
2023-04-15T00:05:52.286Z,58.63
2023-04-15T00:08:19.483Z,58.87
2023-04-15T00:10:46.812Z,58.50
2023-04-15T00:13:13.512Z,58.24
2023-04-15T00:15:40.015Z,58.51
2023-04-15T00:18:08.298Z,58.38
2023-04-15T00:20:35.317Z,58.61
2023-04-15T00:23:02.636Z,58.82
2023-04-15T00:25:29.263Z,58.98
2023-04-15T00:27:55.862Z,59.23
2023-04-15T00:30:23.850Z,59.47
2023-04-15T00:32:50.891Z,59.46
2023-04-15T00:35:17.600Z,59.74
2023-04-15T00:37:46.007Z,60.01
2023-04-15T00:40:13.755Z,60.09
2023-04-15T00:42:40.333Z,60.03
2023-04-15T00:45:08.877Z,59.60
2023-04-15T00:47:37.301Z,59.70
2023-04-15T00:50:04.057Z,59.58
2023-04-15T00:52:30.786Z,59.38
2023-04-15T00:54:57.681Z,58.95
2023-04-15T00:57:24.531Z,58.78
2023-04-15T00:59:51.483Z,58.97
2023-04-15T01:02:18.336Z,58.72
2023-04-15T01:04:45.177Z,58.71
2023-04-15T01:07:11.999Z,59.21
2023-04-15T01:09:38.561Z,58.85
2023-04-15T01:12:07.140Z,59.06
2023-04-15T01:14:33.783Z,59.59
2023-04-15T01:17:00.827Z,59.43
2023-04-15T01:19:27.669Z,59.61
2023-04-15T01:21:54.558Z,59.76
2023-04-15T01:24:21.453Z,59.79
2023-04-15T01:26:49.818Z,59.99
2023-04-15T01:29:16.583Z,59.93
2023-04-15T01:31:51.186Z,60.35
2023-04-15T01:34:18.184Z,60.76
2023-04-15T01:36:44.756Z,60.68
2023-04-15T01:39:11.277Z,60.39
2023-04-15T01:41:37.847Z,60.80
2023-04-15T01:44:04.377Z,60.88
2023-04-15T01:46:31.377Z,60.87
2023-04-15T01:48:58.136Z,60.81
2023-04-15T01:51:24.807Z,60.68
2023-04-15T01:53:52.250Z,60.61
2023-04-15T01:56:18.849Z,61.25
2023-04-15T01:58:45.521Z,61.44
2023-04-15T02:01:13.118Z,62.10
2023-04-15T02:03:39.679Z,62.04
2023-04-15T02:06:06.324Z,62.14
2023-04-15T02:08:32.867Z,62.30
2023-04-15T02:10:59.406Z,62.47
2023-04-15T02:13:25.934Z,62.51
2023-04-15T02:15:53.009Z,62.38
2023-04-15T02:18:19.546Z,62.80
2023-04-15T02:20:47.039Z,62.89
2023-04-15T02:23:13.813Z,63.45
2023-04-15T02:25:40.483Z,63.27
2023-04-15T02:28:07.125Z,63.02
2023-04-15T02:30:33.990Z,63.28
2023-04-15T02:33:01.081Z,63.77
2023-04-15T02:35:27.800Z,63.71
2023-04-15T02:37:54.516Z,63.64
2023-04-15T02:40:20.996Z,63.97
2023-04-15T02:42:47.548Z,64.48
2023-04-15T02:45:14.151Z,64.60
2023-04-15T02:47:44.421Z,64.22
2023-04-15T02:50:13.001Z,64.24
2023-04-15T02:52:41.667Z,64.66
2023-04-15T02:55:09.671Z,64.76
2023-04-15T02:57:40.677Z,64.88
2023-04-15T03:00:09.703Z,65.01
2023-04-15T03:02:38.101Z,65.09
2023-04-15T03:05:05.956Z,65.32
2023-04-15T03:07:32.642Z,65.38
2023-04-15T03:09:59.178Z,65.65
2023-04-15T03:12:25.731Z,65.91
2023-04-15T03:14:52.241Z,66.16
2023-04-15T03:17:18.832Z,66.32
2023-04-15T03:19:45.398Z,65.91
2023-04-15T03:22:11.904Z,66.39
2023-04-15T03:24:38.377Z,66.06
2023-04-15T03:27:06.334Z,65.79
2023-04-15T03:29:32.828Z,66.38
2023-04-15T03:31:59.403Z,65.89
2023-04-15T03:34:25.988Z,66.45
2023-04-15T03:36:52.567Z,65.96
2023-04-15T03:39:19.027Z,66.19
2023-04-15T03:41:45.752Z,66.25
2023-04-15T03:44:12.262Z,65.98
2023-04-15T03:46:38.858Z,66.32
2023-04-15T03:49:07.152Z,66.14
2023-04-15T03:51:33.715Z,66.32
2023-04-15T03:54:00.230Z,66.61
2023-04-15T03:56:27.028Z,66.07
2023-04-15T03:58:53.537Z,66.28
2023-04-15T04:01:20.073Z,66.54
2023-04-15T04:03:46.748Z,66.31
2023-04-15T04:06:13.387Z,66.52
2023-04-15T04:08:39.904Z,66.97
2023-04-15T04:11:06.759Z,67.15
2023-04-15T04:13:33.383Z,66.88
2023-04-15T04:16:00.086Z,66.86
2023-04-15T04:18:26.719Z,67.05
2023-04-15T04:20:53.267Z,67.36
2023-04-15T04:23:19.753Z,67.15
2023-04-15T04:25:46.352Z,67.37
2023-04-15T04:28:12.896Z,67.10
2023-04-15T04:30:40.053Z,67.35
2023-04-15T04:33:07.299Z,67.58
2023-04-15T04:35:35.030Z,67.58
2023-04-15T04:38:03.109Z,68.14
2023-04-15T04:40:29.578Z,68.58
2023-04-15T04:42:56.142Z,69.45
2023-04-15T04:45:22.760Z,70.13
2023-04-15T04:47:49.316Z,70.53
2023-04-15T04:50:16.583Z,70.98
2023-04-15T04:52:43.221Z,71.26
2023-04-15T04:55:09.730Z,71.36
2023-04-15T04:57:36.501Z,71.74
2023-04-15T05:00:04.976Z,71.72
2023-04-15T05:02:32.525Z,72.08
2023-04-15T05:04:59.144Z,72.05
2023-04-15T05:07:25.731Z,72.39
2023-04-15T05:09:52.305Z,72.61
2023-04-15T05:12:18.877Z,72.26
2023-04-15T05:14:46.814Z,72.17
2023-04-15T05:17:14.105Z,72.23
2023-04-15T05:19:40.843Z,72.64
2023-04-15T05:22:07.910Z,72.37
2023-04-15T05:24:34.463Z,72.22
2023-04-15T05:27:02.170Z,71.82
2023-04-15T05:29:29.678Z,72.51
2023-04-15T05:31:56.708Z,72.36
2023-04-15T05:34:23.253Z,72.47
2023-04-15T05:36:49.912Z,71.85
2023-04-15T05:39:16.576Z,71.91
2023-04-15T05:41:43.084Z,72.03
2023-04-15T05:44:09.593Z,71.81
2023-04-15T05:46:36.380Z,71.83
2023-04-15T05:49:03.206Z,71.44
2023-04-15T05:51:29.908Z,71.18
2023-04-15T05:53:56.414Z,70.78
2023-04-15T05:56:22.978Z,70.48
2023-04-15T05:58:50.547Z,70.13
2023-04-15T06:01:17.923Z,70.04
2023-04-15T06:03:44.926Z,69.44
2023-04-15T06:06:11.559Z,69.48
2023-04-15T06:08:38.286Z,69.96
2023-04-15T06:11:04.837Z,69.38
2023-04-15T06:13:31.372Z,69.40
2023-04-15T06:15:57.915Z,69.59
2023-04-15T06:18:24.715Z,69.43
2023-04-15T06:20:51.885Z,68.84
2023-04-15T06:23:18.435Z,68.82
2023-04-15T06:25:44.985Z,69.03
2023-04-15T06:28:11.427Z,68.64
2023-04-15T06:30:38.523Z,68.60
2023-04-15T06:33:06.692Z,68.84
2023-04-15T06:35:33.351Z,67.81
2023-04-15T06:37:59.824Z,68.01
2023-04-15T06:40:26.785Z,67.72
2023-04-15T06:42:53.326Z,67.19
2023-04-15T06:45:19.833Z,67.38
2023-04-15T06:47:46.668Z,67.41
2023-04-15T06:50:13.511Z,67.76
2023-04-15T06:52:40.918Z,67.82
2023-04-15T06:55:07.981Z,67.37
2023-04-15T06:57:35.136Z,67.60
2023-04-15T07:00:02.274Z,66.96
2023-04-15T07:02:28.958Z,67.16
2023-04-15T07:04:57.004Z,67.39
2023-04-15T07:07:23.484Z,67.37
2023-04-15T07:09:50.220Z,66.64
2023-04-15T07:12:16.761Z,66.68
2023-04-15T07:14:43.412Z,66.90
2023-04-15T07:17:10.041Z,66.18
2023-04-15T07:19:36.855Z,65.94
2023-04-15T07:22:03.857Z,65.65
2023-04-15T07:24:31.114Z,66.00
2023-04-15T07:27:01.269Z,65.36
2023-04-15T07:29:28.068Z,65.88
2023-04-15T07:31:54.637Z,64.93
2023-04-15T07:34:21.269Z,64.50
2023-04-15T07:36:51.851Z,63.99
2023-04-15T07:39:19.044Z,63.66
2023-04-15T07:41:45.597Z,63.08
2023-04-15T07:44:12.142Z,62.98
2023-04-15T07:46:38.940Z,62.49
2023-04-15T07:49:05.585Z,62.53
2023-04-15T07:51:33.363Z,62.68
2023-04-15T07:53:59.978Z,61.72
2023-04-15T07:56:26.555Z,61.32
2023-04-15T07:58:53.323Z,60.72
2023-04-15T08:01:19.903Z,60.44
2023-04-15T08:03:47.292Z,60.00
2023-04-15T08:06:14.299Z,59.19
2023-04-15T08:08:40.834Z,59.53
2023-04-15T08:11:07.446Z,59.31
2023-04-15T08:13:34.032Z,59.08
2023-04-15T08:16:23.420Z,58.62
2023-04-15T08:18:51.522Z,57.94
2023-04-15T08:21:18.823Z,57.81
2023-04-15T08:23:50.202Z,57.78
2023-04-15T08:26:17.654Z,56.68
2023-04-15T08:28:45.464Z,54.34
2023-04-15T08:31:13.492Z,52.15
2023-04-15T08:33:40.234Z,51.10
2023-04-15T08:36:07.581Z,50.79
2023-04-15T08:38:34.789Z,50.74
2023-04-15T08:41:05.150Z,51.58
2023-04-15T08:43:35.256Z,52.35
2023-04-15T08:46:02.497Z,53.32
2023-04-15T08:48:29.976Z,53.01
2023-04-15T08:50:56.876Z,53.32
2023-04-15T08:53:24.639Z,53.65
2023-04-15T08:55:56.506Z,53.75
2023-04-15T08:58:23.427Z,53.36
2023-04-15T09:00:50.188Z,52.45
2023-04-15T09:03:17.760Z,50.72
2023-04-15T09:05:44.430Z,48.23
2023-04-15T09:08:10.975Z,46.95
2023-04-15T09:10:38.449Z,46.48
2023-04-15T09:13:04.940Z,47.09
2023-04-15T09:15:32.996Z,46.43
2023-04-15T09:17:59.469Z,46.01
2023-04-15T09:20:26.394Z,46.38
2023-04-15T09:22:52.974Z,46.01
2023-04-15T09:25:27.546Z,45.03
2023-04-15T09:27:59.298Z,42.96
2023-04-15T09:30:26.512Z,41.30
2023-04-15T09:32:55.000Z,41.71
2023-04-15T09:35:22.472Z,40.83
2023-04-15T09:37:52.540Z,40.35
2023-04-15T09:40:35.082Z,39.38
2023-04-15T09:43:02.603Z,38.63
2023-04-15T09:45:29.856Z,38.55
2023-04-15T09:47:59.214Z,38.01
2023-04-15T09:50:29.633Z,37.37
2023-04-15T09:52:56.477Z,37.25
2023-04-15T09:55:23.106Z,36.92
2023-04-15T09:57:49.667Z,36.48
2023-04-15T10:00:16.415Z,36.16
2023-04-15T10:02:43.298Z,35.69
2023-04-15T10:05:16.326Z,35.85
2023-04-15T10:07:43.439Z,35.11
2023-04-15T10:10:11.100Z,33.29
2023-04-15T10:12:38.256Z,33.99
2023-04-15T10:15:05.963Z,34.27
2023-04-15T10:17:35.553Z,34.84
2023-04-15T10:20:04.798Z,32.81
2023-04-15T10:22:32.790Z,32.08
2023-04-15T10:25:00.228Z,32.49
2023-04-15T10:27:27.846Z,32.01
2023-04-15T10:29:54.592Z,31.62
2023-04-15T10:32:21.880Z,32.42
2023-04-15T10:34:49.597Z,31.27
2023-04-15T10:37:34.408Z,31.38
2023-04-15T10:40:00.971Z,32.31
2023-04-15T10:42:34.799Z,32.56
2023-04-15T10:45:01.391Z,34.03
2023-04-15T10:47:28.551Z,32.57
2023-04-15T10:50:00.425Z,32.01
2023-04-15T10:52:28.765Z,32.27
2023-04-15T10:55:19.702Z,32.69
2023-04-15T10:57:46.337Z,32.77
2023-04-15T11:00:14.936Z,32.82
2023-04-15T11:02:56.517Z,31.70
2023-04-15T11:05:39.258Z,30.87
2023-04-15T11:08:05.764Z,30.37
2023-04-15T11:10:32.237Z,31.50
2023-04-15T11:13:01.233Z,32.05
2023-04-15T11:15:36.806Z,32.50
2023-04-15T11:18:10.127Z,30.99
2023-04-15T11:20:37.411Z,31.94
2023-04-15T11:23:14.122Z,31.95
2023-04-15T11:25:42.846Z,31.92
2023-04-15T11:28:09.482Z,31.65
2023-04-15T11:30:37.597Z,32.88
2023-04-15T11:33:06.564Z,31.66
2023-04-15T11:35:33.548Z,30.60
2023-04-15T11:38:03.868Z,31.57
2023-04-15T11:40:31.484Z,31.75
2023-04-15T11:43:08.679Z,32.04
2023-04-15T11:45:36.537Z,31.79
2023-04-15T11:48:07.092Z,31.97
2023-04-15T11:50:33.829Z,31.35
2023-04-15T11:53:12.426Z,30.87
2023-04-15T11:55:47.175Z,29.54
2023-04-15T11:58:15.632Z,29.57
2023-04-15T12:00:50.739Z,29.06
2023-04-15T12:03:17.405Z,29.75
2023-04-15T12:06:21.891Z,37.15
2023-04-15T12:09:04.988Z,41.39
2023-04-15T12:11:49.959Z,44.55
2023-04-15T12:14:29.722Z,42.35
2023-04-15T12:17:14.346Z,41.02
2023-04-15T12:19:42.867Z,41.04
2023-04-15T12:22:11.136Z,40.83
2023-04-15T12:24:38.467Z,40.38
2023-04-15T12:27:07.129Z,38.54
2023-04-15T12:29:35.518Z,39.26
2023-04-15T12:32:15.804Z,39.52
2023-04-15T12:34:50.870Z,38.20
2023-04-15T12:37:17.735Z,38.65
2023-04-15T12:39:48.019Z,39.20
2023-04-15T12:42:15.490Z,38.77
2023-04-15T12:44:42.286Z,38.46
2023-04-15T12:47:10.012Z,38.86
2023-04-15T12:49:37.570Z,38.33
2023-04-15T12:52:04.432Z,38.77
2023-04-15T12:54:31.977Z,38.56
2023-04-15T12:56:59.274Z,38.78
2023-04-15T12:59:25.918Z,39.19
2023-04-15T13:01:53.454Z,37.26
2023-04-15T13:04:21.148Z,38.47
2023-04-15T13:06:47.956Z,38.24
2023-04-15T13:09:15.704Z,37.69
2023-04-15T13:11:42.195Z,38.43
2023-04-15T13:14:09.453Z,37.89
2023-04-15T13:16:36.214Z,37.83
2023-04-15T13:19:03.755Z,38.61
2023-04-15T13:21:32.262Z,38.97
2023-04-15T13:23:59.509Z,39.77
2023-04-15T13:26:26.511Z,40.08
2023-04-15T13:28:53.230Z,40.10
2023-04-15T13:31:20.012Z,38.54
2023-04-15T13:33:46.582Z,36.94
2023-04-15T13:36:13.199Z,38.90
2023-04-15T13:38:39.798Z,40.94
2023-04-15T13:41:06.311Z,39.97
2023-04-15T13:43:34.334Z,40.20
2023-04-15T13:46:01.344Z,41.52
2023-04-15T13:48:28.545Z,41.29
2023-04-15T13:50:55.240Z,41.75
2023-04-15T13:53:21.768Z,40.63
2023-04-15T13:56:06.347Z,40.45
2023-04-15T13:58:32.932Z,40.05
2023-04-15T14:00:59.455Z,41.85
2023-04-15T14:03:26.326Z,41.71
2023-04-15T14:05:56.067Z,41.01
2023-04-15T14:08:23.237Z,39.81
2023-04-15T14:10:49.896Z,40.81
2023-04-15T14:13:16.488Z,40.52
2023-04-15T14:15:43.007Z,40.20
2023-04-15T14:18:09.751Z,40.92
2023-04-15T14:20:36.466Z,39.76
2023-04-15T14:23:02.988Z,38.93
2023-04-15T14:25:33.852Z,39.54
2023-04-15T14:28:01.094Z,39.40
2023-04-15T14:30:27.645Z,39.87
2023-04-15T14:32:54.343Z,40.69
2023-04-15T14:35:20.930Z,39.69
2023-04-15T14:37:47.433Z,37.79
2023-04-15T14:40:13.955Z,38.20
2023-04-15T14:42:40.619Z,37.19
2023-04-15T14:45:07.684Z,37.07
2023-04-15T14:47:34.291Z,38.98
2023-04-15T14:50:00.913Z,39.18
2023-04-15T14:52:27.441Z,41.18
2023-04-15T14:54:53.996Z,42.77
2023-04-15T14:57:20.600Z,42.49
2023-04-15T14:59:47.198Z,43.38
2023-04-15T15:02:17.259Z,42.80
2023-04-15T15:04:47.897Z,42.96
2023-04-15T15:07:14.462Z,43.12
2023-04-15T15:09:41.709Z,42.53
2023-04-15T15:12:08.228Z,42.54
2023-04-15T15:14:34.901Z,41.69
2023-04-15T15:17:01.614Z,41.50
2023-04-15T15:19:28.505Z,41.49
2023-04-15T15:21:55.237Z,42.57
2023-04-15T15:24:21.778Z,42.00
2023-04-15T15:26:48.279Z,42.54
2023-04-15T15:29:14.855Z,42.26
2023-04-15T15:31:41.367Z,43.21
2023-04-15T15:34:07.897Z,43.11
2023-04-15T15:36:34.375Z,42.94
2023-04-15T15:39:01.034Z,44.17
2023-04-15T15:41:27.521Z,43.79
2023-04-15T15:43:54.407Z,41.26
2023-04-15T15:46:21.148Z,41.12
2023-04-15T15:48:47.740Z,39.80
2023-04-15T15:51:14.312Z,40.07
2023-04-15T15:53:40.838Z,42.63
2023-04-15T15:56:07.606Z,43.75
2023-04-15T15:58:34.229Z,45.42
2023-04-15T16:01:01.942Z,44.42
2023-04-15T16:03:29.220Z,45.13
2023-04-15T16:05:55.825Z,43.71
2023-04-15T16:08:22.324Z,41.96
2023-04-15T16:10:49.157Z,42.05
2023-04-15T16:13:15.944Z,42.52
2023-04-15T16:15:42.512Z,41.02
2023-04-15T16:18:09.114Z,42.19
2023-04-15T16:20:35.648Z,42.71
2023-04-15T16:23:08.998Z,45.12
2023-04-15T16:25:35.586Z,44.26
2023-04-15T16:28:08.890Z,45.18
2023-04-15T16:30:46.967Z,45.03
2023-04-15T16:33:13.490Z,44.36
2023-04-15T16:35:40.014Z,44.75
2023-04-15T16:38:07.018Z,46.00
2023-04-15T16:40:33.556Z,46.45
2023-04-15T16:43:00.270Z,46.96
2023-04-15T16:45:26.831Z,47.21
2023-04-15T16:47:54.403Z,48.52
2023-04-15T16:50:21.143Z,50.44
2023-04-15T16:52:47.669Z,51.80
2023-04-15T16:55:14.150Z,53.57
2023-04-15T16:58:00.346Z,53.46
2023-04-15T17:00:28.215Z,52.84
2023-04-15T17:02:58.677Z,54.44
2023-04-15T17:05:27.514Z,55.63
2023-04-15T17:07:54.323Z,55.31
2023-04-15T17:10:21.053Z,55.50
2023-04-15T17:12:47.599Z,55.50
2023-04-15T17:15:14.140Z,57.55
2023-04-15T17:17:40.809Z,58.51
2023-04-15T17:20:08.019Z,58.93
2023-04-15T17:22:34.587Z,59.24
2023-04-15T17:25:01.106Z,56.70
2023-04-15T17:27:28.933Z,56.91
2023-04-15T17:29:55.676Z,57.94
2023-04-15T17:32:22.942Z,57.22
2023-04-15T17:34:51.354Z,57.39
2023-04-15T17:37:18.517Z,58.47
2023-04-15T17:39:45.384Z,58.85
2023-04-15T17:42:12.844Z,60.54
2023-04-15T17:44:39.793Z,61.67
2023-04-15T17:47:07.205Z,63.07
2023-04-15T17:49:34.295Z,62.68
2023-04-15T17:52:01.283Z,63.20
2023-04-15T17:54:28.072Z,64.37
2023-04-15T17:56:54.669Z,65.58
2023-04-15T17:59:21.165Z,65.96
2023-04-15T18:01:47.791Z,66.02
2023-04-15T18:04:14.557Z,66.77
2023-04-15T18:06:41.223Z,65.64
2023-04-15T18:09:08.955Z,66.04
2023-04-15T18:11:36.468Z,66.51
2023-04-15T18:14:03.294Z,66.21
2023-04-15T18:16:30.215Z,66.78
2023-04-15T18:18:56.817Z,67.14
2023-04-15T18:21:23.435Z,66.46
2023-04-15T18:23:49.957Z,66.82
2023-04-15T18:26:17.737Z,66.60
2023-04-15T18:28:44.272Z,67.44
2023-04-15T18:31:10.854Z,67.96
2023-04-15T18:33:37.783Z,68.28
2023-04-15T18:36:04.317Z,68.26
2023-04-15T18:38:31.006Z,67.75
2023-04-15T18:40:57.684Z,67.77
2023-04-15T18:43:24.225Z,68.01
2023-04-15T18:45:51.934Z,68.58
2023-04-15T18:48:18.510Z,69.40
2023-04-15T18:50:45.030Z,69.23
2023-04-15T18:53:11.608Z,69.18
2023-04-15T18:55:39.332Z,69.55
2023-04-15T18:58:08.853Z,68.99
2023-04-15T19:00:38.933Z,69.15
2023-04-15T19:03:06.523Z,69.47
2023-04-15T19:05:33.427Z,69.44
2023-04-15T19:07:59.973Z,69.68
2023-04-15T19:10:28.244Z,69.89
2023-04-15T19:12:55.366Z,70.20
2023-04-15T19:15:21.933Z,70.13
2023-04-15T19:17:48.783Z,70.39
2023-04-15T19:20:15.542Z,70.29
2023-04-15T19:22:43.145Z,70.71
2023-04-15T19:25:10.373Z,70.51
2023-04-15T19:27:38.319Z,70.15
2023-04-15T19:30:06.314Z,70.42
2023-04-15T19:32:32.897Z,71.21
2023-04-15T19:34:59.811Z,71.64
2023-04-15T19:37:26.357Z,71.64
2023-04-15T19:39:54.395Z,71.86
2023-04-15T19:42:20.936Z,71.96
2023-04-15T19:44:47.413Z,71.91
2023-04-15T19:47:13.962Z,72.01
2023-04-15T19:49:40.567Z,71.46
2023-04-15T19:52:07.187Z,71.64
2023-04-15T19:54:33.766Z,71.85
2023-04-15T19:57:01.555Z,71.77
2023-04-15T19:59:28.102Z,72.73
2023-04-15T20:01:54.708Z,73.17
2023-04-15T20:04:21.468Z,73.23
2023-04-15T20:06:48.703Z,72.98
2023-04-15T20:09:15.389Z,73.40
2023-04-15T20:12:47.477Z,73.73
2023-04-15T20:14:28.482Z,73.70
2023-04-15T20:16:54.974Z,73.35
2023-04-15T20:19:21.448Z,73.78
2023-04-15T20:21:48.477Z,73.73
2023-04-15T20:24:16.139Z,73.65
2023-04-15T20:26:42.703Z,73.43
2023-04-15T20:29:09.276Z,74.00
2023-04-15T20:31:36.354Z,73.90
2023-04-15T20:34:02.875Z,73.94
2023-04-15T20:36:29.483Z,73.50
2023-04-15T20:38:56.115Z,73.34
2023-04-15T20:41:23.232Z,73.58
2023-04-15T20:43:49.780Z,73.34
2023-04-15T20:46:21.190Z,73.41
2023-04-15T20:48:48.602Z,73.93
2023-04-15T20:51:15.388Z,73.85
2023-04-15T20:53:42.242Z,73.69
2023-04-15T20:56:08.885Z,73.95
2023-04-15T20:58:35.478Z,74.01
2023-04-15T21:01:02.325Z,74.42
2023-04-15T21:03:29.239Z,73.34
2023-04-15T21:05:55.923Z,73.32
2023-04-15T21:08:29.069Z,73.16
2023-04-15T21:10:56.726Z,73.00
2023-04-15T21:13:23.912Z,72.85
2023-04-15T21:15:53.435Z,72.98
2023-04-15T21:18:21.503Z,72.55
2023-04-15T21:20:56.602Z,72.51
2023-04-15T21:23:23.133Z,72.61
2023-04-15T21:25:49.659Z,72.67
2023-04-15T21:28:16.206Z,72.76
2023-04-15T21:30:42.761Z,73.21
2023-04-15T21:33:09.277Z,72.78
2023-04-15T21:35:35.794Z,72.26
2023-04-15T21:38:02.277Z,71.63
2023-04-15T21:40:29.002Z,71.54
2023-04-15T21:42:55.515Z,71.84
2023-04-15T21:45:22.033Z,72.13
2023-04-15T21:47:57.421Z,72.33
2023-04-15T21:50:34.048Z,72.72
2023-04-15T21:53:00.620Z,72.99
2023-04-15T21:55:27.229Z,72.81
2023-04-15T21:57:53.694Z,73.19
2023-04-15T22:00:21.238Z,73.61
2023-04-15T22:02:47.940Z,73.33
2023-04-15T22:05:14.597Z,73.56
2023-04-15T22:07:41.800Z,73.56
2023-04-15T22:10:08.892Z,73.46
2023-04-15T22:12:35.470Z,73.52
2023-04-15T22:15:02.520Z,73.88
2023-04-15T22:17:29.341Z,74.14
2023-04-15T22:19:55.900Z,74.15
2023-04-15T22:22:22.392Z,74.19
2023-04-15T22:25:08.976Z,74.07
2023-04-15T22:27:35.645Z,74.56
2023-04-15T22:30:02.128Z,74.06
2023-04-15T22:32:28.770Z,74.30
2023-04-15T22:34:55.309Z,73.96
2023-04-15T22:37:21.843Z,74.10
2023-04-15T22:39:48.310Z,74.38
2023-04-15T22:42:14.794Z,74.29
2023-04-15T22:44:41.271Z,74.34
2023-04-15T22:47:07.800Z,74.09
2023-04-15T22:49:35.070Z,74.57
2023-04-15T22:52:01.782Z,74.83
2023-04-15T22:54:28.321Z,74.68
2023-04-15T22:56:54.876Z,74.66
2023-04-15T22:59:21.360Z,75.27
2023-04-15T23:01:47.993Z,74.49
2023-04-15T23:04:23.185Z,74.48
2023-04-15T23:06:52.362Z,74.79
2023-04-15T23:09:19.378Z,74.87
2023-04-15T23:11:45.988Z,74.80
2023-04-15T23:14:12.532Z,75.06
2023-04-15T23:16:39.159Z,75.10
2023-04-15T23:19:05.852Z,75.32
2023-04-15T23:21:32.442Z,75.22
2023-04-15T23:23:58.947Z,75.41
2023-04-15T23:26:27.313Z,74.84
2023-04-15T23:28:53.867Z,75.28
2023-04-15T23:31:20.534Z,75.94
2023-04-15T23:33:47.147Z,75.89
2023-04-15T23:36:13.665Z,76.89
2023-04-15T23:38:40.312Z,76.68
2023-04-15T23:41:06.816Z,76.93
2023-04-15T23:43:33.582Z,77.61
2023-04-15T23:46:00.164Z,77.52
2023-04-15T23:48:26.832Z,77.57
2023-04-15T23:50:53.339Z,78.00
2023-04-15T23:53:19.856Z,78.08
2023-04-15T23:55:46.457Z,78.35
2023-04-15T23:58:13.099Z,78.39
